Time;durP1;ratioP1;P1;durP2;ratioP2;P2;SDS_P1;SDS_P2;PMS_P1;PMS_P2;Temp;Humidity;BMP_temperature;BMP_pressure;BME280_temperature;BME280_humidity;BME280_pressure;Samples;Min_cycle;Max_cycle;Signal;HPM_P1;HPM_P2
2021/05/12 00:00:27;;;;;;;3.58;1.25;;;19.00;72.90;;;;;;5063976;28;20046;-66
2021/05/12 00:02:55;;;;;;;3.08;1.10;;;19.20;72.60;;;;;;5061807;28;20025;-65
2021/05/12 00:05:25;;;;;;;2.22;1.10;;;19.20;71.20;;;;;;5063836;28;20025;-66
2021/05/12 00:07:53;;;;;;;26.02;20.52;;;19.20;71.60;;;;;;5063002;28;20029;-66
2021/05/12 00:10:22;;;;;;;5.18;1.83;;;19.20;72.40;;;;;;5063758;28;20036;-66
2021/05/12 00:12:50;;;;;;;3.72;1.30;;;19.40;72.20;;;;;;5064470;28;20027;-66
2021/05/12 00:15:21;;;;;;;8.20;1.30;;;19.50;71.40;;;;;;5061895;28;20028;-66
2021/05/12 00:17:50;;;;;;;2.92;1.55;;;19.60;71.40;;;;;;5063571;28;20103;-66
2021/05/12 00:20:27;;;;;;;4.18;1.73;;;19.60;71.60;;;;;;5063375;28;20025;-65
2021/05/12 00:23:00;;;;;;;5.57;1.52;;;19.70;71.50;;;;;;5065157;28;20097;-66
2021/05/12 00:25:27;;;;;;;2.95;1.38;;;19.80;71.00;;;;;;5063413;28;20029;-66
2021/05/12 00:27:56;;;;;;;4.90;1.13;;;19.90;71.10;;;;;;5063825;28;20025;-66
2021/05/12 00:30:24;;;;;;;3.15;1.48;;;20.00;70.50;;;;;;5064127;28;20069;-66
2021/05/12 00:32:52;;;;;;;6.70;1.30;;;19.80;71.70;;;;;;5065004;28;20036;-67
2021/05/12 00:35:20;;;;;;;3.08;1.17;;;19.90;71.90;;;;;;5063871;28;20085;-66
2021/05/12 00:37:47;;;;;;;6.07;1.20;;;20.00;70.90;;;;;;5046625;28;20047;-67
2021/05/12 00:40:17;;;;;;;2.85;1.15;;;19.90;70.90;;;;;;5061880;28;20063;-67
2021/05/12 00:42:46;;;;;;;5.07;1.40;;;19.90;71.10;;;;;;5064119;28;20115;-67
2021/05/12 00:45:15;;;;;;;3.55;1.33;;;20.00;71.60;;;;;;5063638;28;20028;-67
2021/05/12 00:47:48;;;;;;;4.57;1.77;;;20.30;70.20;;;;;;5063169;28;20671;-66
2021/05/12 00:50:19;;;;;;;5.22;1.63;;;20.40;70.30;;;;;;5061377;28;20134;-66
2021/05/12 00:52:46;;;;;;;9.13;2.90;;;20.70;70.10;;;;;;5064432;28;20042;-66
2021/05/12 00:55:15;;;;;;;3.55;1.50;;;21.10;69.30;;;;;;5064018;28;20049;-68
2021/05/12 00:57:42;;;;;;;4.82;1.67;;;21.40;68.40;;;;;;5046093;28;20567;-67
2021/05/12 01:00:12;;;;;;;3.67;1.00;;;21.60;65.90;;;;;;5063305;28;20055;-68
2021/05/12 01:02:39;;;;;;;3.88;1.67;;;21.70;65.40;;;;;;5061801;28;20025;-67
2021/05/12 01:05:11;;;;;;;3.45;1.10;;;21.70;67.30;;;;;;5063450;28;20024;-67
2021/05/12 01:07:38;;;;;;;2.83;1.13;;;21.90;65.60;;;;;;5063054;28;20052;-67
2021/05/12 01:10:06;;;;;;;5.70;1.20;;;22.10;64.30;;;;;;5065500;28;20099;-67
2021/05/12 01:12:34;;;;;;;3.92;1.30;;;22.00;64.40;;;;;;5065760;28;20027;-67
2021/05/12 01:15:01;;;;;;;7.03;1.35;;;21.70;64.70;;;;;;5065615;28;20657;-68
2021/05/12 01:17:28;;;;;;;5.25;1.88;;;21.40;66.50;;;;;;5066309;28;20033;-66
2021/05/12 01:19:55;;;;;;;7.15;1.25;;;21.50;67.30;;;;;;5063234;28;20028;-69
2021/05/12 01:22:23;;;;;;;4.30;1.58;;;21.40;66.80;;;;;;5078821;22;20173;-67
2021/05/12 01:24:50;;;;;;;5.30;1.50;;;21.50;66.90;;;;;;5084424;28;20023;-66
2021/05/12 01:27:18;;;;;;;2.88;1.30;;;21.40;66.60;;;;;;5082863;28;20021;-67
2021/05/12 01:29:45;;;;;;;3.85;1.73;;;21.50;66.70;;;;;;5082487;28;20024;-66
2021/05/12 01:32:17;;;;;;;3.47;1.40;;;21.60;67.20;;;;;;5084540;28;20019;-66
2021/05/12 01:34:45;;;;;;;5.00;1.73;;;21.70;66.20;;;;;;5084347;28;20036;-68
2021/05/12 01:37:14;;;;;;;3.17;1.55;;;21.60;66.60;;;;;;5085037;28;20107;-69
2021/05/12 01:39:42;;;;;;;8.82;2.80;;;21.70;66.90;;;;;;5085280;28;20105;-68
2021/05/12 01:42:09;;;;;;;5.50;1.58;;;21.60;67.20;;;;;;5084173;28;20027;-65
2021/05/12 01:44:36;;;;;;;7.40;3.47;;;21.50;67.50;;;;;;5081499;28;20105;-67
2021/05/12 01:47:04;;;;;;;4.90;2.10;;;21.40;68.10;;;;;;5084206;28;20163;-67
2021/05/12 01:49:32;;;;;;;4.05;1.52;;;21.40;69.00;;;;;;5084900;28;20400;-68
2021/05/12 01:51:59;;;;;;;2.83;1.40;;;21.70;67.20;;;;;;5085456;28;20022;-68
2021/05/12 01:54:27;;;;;;;2.90;1.42;;;22.10;66.90;;;;;;5067734;28;20020;-66
2021/05/12 01:56:54;;;;;;;6.85;1.48;;;22.50;64.80;;;;;;5070118;28;20385;-67
2021/05/12 01:59:21;;;;;;;6.40;1.55;;;22.50;64.10;;;;;;5089084;28;20107;-67
2021/05/12 02:01:49;;;;;;;4.25;1.70;;;22.80;65.50;;;;;;5089007;28;20080;-66
2021/05/12 02:04:16;;;;;;;6.28;1.63;;;22.90;63.80;;;;;;5087635;28;20070;-64
2021/05/12 02:06:43;;;;;;;4.95;1.27;;;22.80;63.30;;;;;;5087597;28;20096;-66
2021/05/12 02:09:11;;;;;;;4.93;1.42;;;22.90;64.20;;;;;;5069904;28;20117;-66
2021/05/12 02:11:39;;;;;;;4.97;1.30;;;22.90;63.60;;;;;;5088290;28;20030;-66
2021/05/12 02:14:12;;;;;;;5.60;1.55;;;22.90;63.60;;;;;;5085585;28;20019;-66
2021/05/12 02:16:39;;;;;;;3.90;1.20;;;23.30;64.00;;;;;;5085224;28;20409;-67
2021/05/12 02:19:07;;;;;;;4.00;1.10;;;23.40;62.40;;;;;;5087270;28;20121;-67
2021/05/12 02:21:34;;;;;;;3.78;1.20;;;23.60;63.10;;;;;;5084518;28;20084;-67
2021/05/12 02:24:01;;;;;;;4.00;1.00;;;23.80;61.40;;;;;;5086800;28;20047;-68
2021/05/12 02:26:29;;;;;;;3.70;1.17;;;23.70;61.60;;;;;;5085566;28;20023;-66
2021/05/12 02:28:57;;;;;;;4.60;1.23;;;23.60;61.70;;;;;;5085350;28;20016;-66
2021/05/12 02:31:25;;;;;;;4.78;1.25;;;23.20;61.80;;;;;;5085284;28;20016;-65
2021/05/12 02:33:55;;;;;;;6.20;1.60;;;23.00;61.80;;;;;;5074926;28;20077;-68
2021/05/12 02:36:25;;;;;;;2.83;1.40;;;23.30;61.20;;;;;;5075496;28;20032;-64
2021/05/12 02:38:56;;;;;;;3.50;1.27;;;23.20;60.60;;;;;;5057248;28;20455;-65
2021/05/12 02:41:26;;;;;;;2.03;1.00;;;22.90;63.20;;;;;;5075641;28;20027;-67
2021/05/12 02:43:55;;;;;;;3.33;1.15;;;22.60;62.60;;;;;;5073692;28;20031;-66
2021/05/12 02:46:23;;;;;;;4.90;1.65;;;22.60;62.20;;;;;;5076568;28;20138;-65
2021/05/12 02:48:50;;;;;;;4.47;1.10;;;22.50;63.80;;;;;;5070908;28;20018;-67
2021/05/12 02:51:17;;;;;;;2.67;1.27;;;22.40;63.00;;;;;;5077818;28;20443;-66
2021/05/12 02:53:45;;;;;;;2.47;1.10;;;22.40;63.00;;;;;;5072355;28;20113;-64
2021/05/12 02:56:12;;;;;;;3.03;1.30;;;22.30;62.10;;;;;;5076132;28;20016;-66
2021/05/12 02:58:39;;;;;;;1.50;1.00;;;22.10;62.70;;;;;;5074187;28;20528;-66
2021/05/12 03:01:06;;;;;;;2.05;0.90;;;21.90;63.40;;;;;;5070993;28;20032;-68
2021/05/12 03:03:35;;;;;;;3.20;0.85;;;21.70;64.50;;;;;;4371291;28;10000603;-68
2021/05/12 03:06:03;;;;;;;3.67;0.90;;;21.50;64.70;;;;;;5071555;28;20062;-67
2021/05/12 03:08:31;;;;;;;4.75;1.10;;;21.30;65.90;;;;;;5064205;28;20027;-67
2021/05/12 03:11:01;;;;;;;2.55;1.08;;;21.20;65.80;;;;;;5063799;28;20353;-65
2021/05/12 03:13:31;;;;;;;4.97;1.02;;;21.20;67.00;;;;;;5072140;28;20024;-66
2021/05/12 03:16:02;;;;;;;1.13;0.80;;;21.50;66.60;;;;;;5071164;28;20387;-67
2021/05/12 03:18:32;;;;;;;2.17;0.85;;;21.60;65.20;;;;;;5069728;28;21182;-68
2021/05/12 03:21:02;;;;;;;3.90;1.00;;;21.80;65.10;;;;;;5071703;28;20023;-68
2021/05/12 03:23:33;;;;;;;4.95;2.05;;;22.20;65.30;;;;;;5075638;28;20037;-68
2021/05/12 03:26:01;;;;;;;3.70;1.20;;;22.80;63.30;;;;;;5068216;28;20034;-68
2021/05/12 03:28:28;;;;;;;7.13;3.75;;;23.00;61.20;;;;;;5063003;28;20284;-67
2021/05/12 03:30:55;;;;;;;2.00;1.08;;;23.20;60.40;;;;;;5069871;28;20028;-66
2021/05/12 03:33:23;;;;;;;3.08;1.55;;;23.20;60.60;;;;;;5068445;28;20031;-68
2021/05/12 03:35:50;;;;;;;6.15;1.70;;;23.10;61.30;;;;;;5071139;28;20031;-66
2021/05/12 03:38:17;;;;;;;8.82;4.00;;;22.70;61.50;;;;;;5071383;28;20063;-64
2021/05/12 03:40:45;;;;;;;4.80;1.23;;;22.40;63.20;;;;;;5071657;28;20021;-65
2021/05/12 03:43:12;;;;;;;3.35;1.67;;;22.20;63.70;;;;;;5072439;28;20039;-69
2021/05/12 03:45:40;;;;;;;5.38;2.30;;;22.40;64.20;;;;;;5074275;28;20089;-66
2021/05/12 03:48:08;;;;;;;4.03;1.08;;;22.70;63.70;;;;;;5073927;28;20823;-70
2021/05/12 03:50:39;;;;;;;5.05;1.10;;;23.00;62.20;;;;;;5079570;28;20436;-70
2021/05/12 03:53:06;;;;;;;5.07;1.33;;;23.20;61.60;;;;;;5063978;28;20457;-68
2021/05/12 03:55:34;;;;;;;3.72;1.13;;;23.10;62.50;;;;;;5065777;28;20138;-69
2021/05/12 03:58:01;;;;;;;3.30;1.15;;;23.00;63.10;;;;;;5063628;28;20056;-66
2021/05/12 04:00:29;;;;;;;2.00;1.00;;;23.20;61.80;;;;;;5065220;28;20024;-66
2021/05/12 04:02:57;;;;;;;3.45;1.17;;;23.40;61.20;;;;;;5064740;28;20602;-65
2021/05/12 04:05:24;;;;;;;5.32;1.38;;;23.40;61.90;;;;;;5063772;28;20467;-69
2021/05/12 04:07:51;;;;;;;4.65;1.50;;;23.30;60.80;;;;;;5062918;28;20016;-69
2021/05/12 04:10:20;;;;;;;3.92;1.30;;;23.30;62.80;;;;;;5062706;28;20146;-69
2021/05/12 04:12:48;;;;;;;3.28;1.05;;;23.50;61.90;;;;;;5062952;28;20101;-68
2021/05/12 04:15:16;;;;;;;4.43;1.25;;;23.30;61.90;;;;;;5062421;28;20507;-66
2021/05/12 04:17:43;;;;;;;5.35;1.23;;;23.30;62.20;;;;;;5071005;28;20115;-66
2021/05/12 04:20:14;;;;;;;3.38;1.10;;;23.40;61.60;;;;;;5062730;28;20563;-67
2021/05/12 04:22:42;;;;;;;1.35;0.80;;;23.50;60.60;;;;;;5063146;28;20135;-68
2021/05/12 04:25:15;;;;;;;3.72;1.20;;;23.50;61.60;;;;;;5063082;28;20025;-64
2021/05/12 04:27:42;;;;;;;4.45;1.17;;;23.40;61.90;;;;;;5048553;28;20415;-64
2021/05/12 04:30:14;;;;;;;3.15;1.17;;;23.20;62.50;;;;;;5062752;28;20138;-68
2021/05/12 04:32:42;;;;;;;5.22;1.50;;;23.20;62.90;;;;;;5043288;28;20455;-65
2021/05/12 04:35:11;;;;;;;3.47;1.10;;;23.20;62.60;;;;;;5044022;28;20503;-64
2021/05/12 04:37:39;;;;;;;6.38;1.20;;;23.20;62.70;;;;;;5063556;28;20086;-68
2021/05/12 04:40:08;;;;;;;5.10;1.50;;;23.10;63.10;;;;;;5062990;28;20368;-64
2021/05/12 04:42:35;;;;;;;3.35;1.70;;;22.90;63.40;;;;;;5062706;28;20494;-68
2021/05/12 04:45:05;;;;;;;4.63;1.20;;;23.00;63.40;;;;;;5063234;28;20058;-66
2021/05/12 04:47:33;;;;;;;4.38;1.08;;;23.00;61.60;;;;;;5062515;28;20282;-68
2021/05/12 04:50:00;;;;;;;2.90;0.80;;;22.90;63.60;;;;;;5062142;28;20070;-68
2021/05/12 04:52:27;;;;;;;3.67;0.98;;;22.90;62.10;;;;;;5062776;28;20020;-64
2021/05/12 04:54:55;;;;;;;4.05;1.23;;;22.70;63.80;;;;;;5070619;28;20054;-68
2021/05/12 04:57:22;;;;;;;1.80;0.80;;;22.50;64.70;;;;;;5062483;28;20073;-67
2021/05/12 04:59:49;;;;;;;1.50;0.90;;;22.20;64.90;;;;;;5062068;28;20544;-65
2021/05/12 05:02:20;;;;;;;3.03;1.35;;;22.00;66.60;;;;;;5062312;28;20842;-69
2021/05/12 05:04:52;;;;;;;3.13;1.25;;;21.70;67.80;;;;;;5066986;28;20040;-66
2021/05/12 05:07:19;;;;;;;4.70;1.20;;;21.60;68.60;;;;;;5065623;28;20464;-68
2021/05/12 05:09:49;;;;;;;4.00;1.50;;;21.40;69.60;;;;;;5069551;28;20571;-69
2021/05/12 05:12:19;;;;;;;3.95;1.08;;;21.30;69.60;;;;;;5071745;28;20498;-66
2021/05/12 05:14:46;;;;;;;7.15;1.80;;;21.30;70.00;;;;;;5070699;28;20025;-68
2021/05/12 05:17:15;;;;;;;3.60;1.20;;;21.50;69.80;;;;;;5069165;28;20106;-64
2021/05/12 05:19:42;;;;;;;5.05;1.58;;;21.40;68.50;;;;;;5068959;28;20036;-66
2021/05/12 05:22:11;;;;;;;4.65;1.40;;;21.40;69.00;;;;;;5073268;28;20044;-64
2021/05/12 05:24:39;;;;;;;6.07;2.55;;;21.70;67.80;;;;;;5050739;28;20040;-64
2021/05/12 05:27:07;;;;;;;6.72;4.88;;;22.20;66.70;;;;;;5068992;28;20028;-66
2021/05/12 05:29:34;;;;;;;6.13;4.18;;;22.70;65.20;;;;;;5073500;28;20069;-66
2021/05/12 05:32:01;;;;;;;5.47;2.70;;;23.10;64.40;;;;;;5069634;28;20560;-64
2021/05/12 05:34:29;;;;;;;7.65;3.78;;;23.40;63.60;;;;;;5070850;28;20134;-67
2021/05/12 05:36:56;;;;;;;4.40;1.67;;;23.60;63.10;;;;;;5072962;28;20485;-65
2021/05/12 05:39:23;;;;;;;3.50;1.48;;;23.80;62.30;;;;;;5068884;28;20036;-66
2021/05/12 05:41:55;;;;;;;3.28;1.23;;;23.70;62.30;;;;;;5050182;28;20033;-67
2021/05/12 05:44:24;;;;;;;4.25;1.35;;;23.50;62.00;;;;;;5055455;28;20024;-69
2021/05/12 05:46:52;;;;;;;5.60;1.27;;;23.60;61.70;;;;;;5074146;28;20035;-65
2021/05/12 05:49:19;;;;;;;5.38;1.48;;;23.50;62.60;;;;;;5072620;28;20017;-70
2021/05/12 05:51:46;;;;;;;6.15;1.38;;;23.10;64.00;;;;;;5072243;28;20017;-69
2021/05/12 05:54:14;;;;;;;4.13;1.67;;;22.50;65.00;;;;;;5072835;28;20141;-66
2021/05/12 05:56:41;;;;;;;6.05;1.60;;;22.00;67.30;;;;;;5050929;28;20033;-67
2021/05/12 05:59:09;;;;;;;4.60;1.50;;;21.50;68.70;;;;;;5073506;28;20032;-67
2021/05/12 06:01:36;;;;;;;6.07;1.50;;;21.30;69.80;;;;;;5078726;28;20555;-66
2021/05/12 06:04:04;;;;;;;4.93;1.60;;;21.20;70.40;;;;;;5074451;28;20521;-67
2021/05/12 06:06:31;;;;;;;4.88;1.30;;;21.10;71.10;;;;;;5071385;28;20476;-63
2021/05/12 06:08:58;;;;;;;6.35;2.28;;;21.00;71.60;;;;;;5073612;28;20020;-63
2021/05/12 06:11:26;;;;;;;6.28;1.60;;;20.80;72.50;;;;;;5066152;28;20709;-67
2021/05/12 06:13:53;;;;;;;4.55;1.50;;;20.70;73.50;;;;;;5080408;28;20051;-66
2021/05/12 06:16:21;;;;;;;4.28;1.20;;;20.60;74.20;;;;;;5070634;28;20025;-66
2021/05/12 06:18:51;;;;;;;4.65;1.20;;;20.50;74.30;;;;;;5064249;28;20028;-64
2021/05/12 06:21:19;;;;;;;3.42;1.25;;;20.30;74.60;;;;;;5062072;28;20216;-65
2021/05/12 06:23:46;;;;;;;3.88;1.55;;;20.10;75.40;;;;;;5074095;28;20048;-68
2021/05/12 06:26:18;;;;;;;5.20;1.20;;;20.00;75.90;;;;;;5069079;28;20078;-64
2021/05/12 06:28:49;;;;;;;2.70;1.10;;;19.90;76.60;;;;;;5069478;28;20230;-62
2021/05/12 06:31:17;;;;;;;4.15;1.40;;;19.70;77.40;;;;;;5072384;28;20021;-69
2021/05/12 06:33:46;;;;;;;9.65;2.35;;;19.60;78.10;;;;;;5066910;28;20056;-61
2021/05/12 06:36:18;;;;;;;5.03;1.50;;;19.50;78.70;;;;;;5066762;28;20580;-62
2021/05/12 06:38:47;;;;;;;5.33;1.50;;;19.40;79.10;;;;;;5062862;28;20468;-71
2021/05/12 06:41:14;;;;;;;5.60;1.45;;;19.30;79.70;;;;;;5069193;28;20070;-71
2021/05/12 06:43:41;;;;;;;5.20;1.42;;;19.20;80.20;;;;;;5067137;28;20270;-63
2021/05/12 06:46:09;;;;;;;3.80;1.52;;;19.10;80.70;;;;;;5071622;28;20024;-63
2021/05/12 06:48:36;;;;;;;4.43;1.48;;;19.10;81.30;;;;;;5070068;28;21492;-68
2021/05/12 06:51:03;;;;;;;6.72;1.20;;;19.00;81.60;;;;;;5069656;28;20024;-69
2021/05/12 06:53:35;;;;;;;4.90;1.83;;;18.90;82.10;;;;;;5064359;28;20025;-61
2021/05/12 06:56:04;;;;;;;6.83;1.37;;;18.80;82.50;;;;;;5064662;28;20135;-70
2021/05/12 06:58:34;;;;;;;8.98;1.83;;;18.70;83.00;;;;;;5071063;28;20082;-63
2021/05/12 07:01:01;;;;;;;3.10;1.23;;;18.70;83.30;;;;;;5050427;28;20068;-63
2021/05/12 07:03:29;;;;;;;3.10;1.38;;;18.60;84.00;;;;;;5070594;28;20491;-71
2021/05/12 07:05:58;;;;;;;7.97;1.40;;;18.50;84.00;;;;;;5067285;28;20079;-71
2021/05/12 07:08:25;;;;;;;5.45;1.50;;;18.40;84.60;;;;;;5062744;28;20044;-72
2021/05/12 07:10:53;;;;;;;5.07;1.88;;;18.40;84.60;;;;;;5072657;28;20024;-71
2021/05/12 07:13:20;;;;;;;5.53;1.85;;;18.30;85.20;;;;;;5066461;28;20021;-63
2021/05/12 07:15:47;;;;;;;4.13;1.60;;;18.20;85.40;;;;;;5068307;28;20115;-62
2021/05/12 07:18:14;;;;;;;4.35;1.80;;;18.20;85.80;;;;;;5072877;28;21075;-63
2021/05/12 07:20:42;;;;;;;4.85;1.48;;;18.10;86.00;;;;;;5067267;28;20032;-71
2021/05/12 07:23:23;;;;;;;5.20;1.50;;;18.00;86.70;;;;;;5055243;28;20055;-70
2021/05/12 07:25:54;;;;;;;9.68;4.07;;;18.00;86.70;;;;;;5066406;28;20028;-71
2021/05/12 07:28:27;;;;;;;6.88;2.78;;;17.90;87.10;;;;;;5066587;28;20045;-71
2021/05/12 07:30:54;;;;;;;6.63;1.98;;;17.80;87.30;;;;;;5066285;28;20320;-64
2021/05/12 07:33:24;;;;;;;8.80;1.75;;;17.70;87.40;;;;;;5064756;28;20020;-70
2021/05/12 07:35:51;;;;;;;5.65;1.90;;;17.70;87.90;;;;;;5067989;28;20476;-70
2021/05/12 07:38:19;;;;;;;5.07;1.75;;;17.70;87.90;;;;;;5069868;28;20492;-70
2021/05/12 07:40:46;;;;;;;7.50;2.17;;;17.60;87.90;;;;;;5069168;28;20028;-71
2021/05/12 07:43:13;;;;;;;7.70;2.30;;;17.50;88.30;;;;;;5068689;28;20073;-69
2021/05/12 07:45:42;;;;;;;4.95;1.80;;;17.40;89.10;;;;;;5068653;28;20081;-63
2021/05/12 07:48:14;;;;;;;7.07;1.73;;;17.20;89.70;;;;;;5067914;28;20342;-70
2021/05/12 07:50:46;;;;;;;10.15;2.30;;;17.20;90.00;;;;;;5068389;28;20365;-63
2021/05/12 07:53:16;;;;;;;6.60;1.77;;;17.20;90.00;;;;;;5065811;28;20102;-69
2021/05/12 07:55:46;;;;;;;6.50;2.00;;;17.20;90.00;;;;;;5065915;28;20055;-64
2021/05/12 07:58:17;;;;;;;6.72;2.20;;;17.20;90.10;;;;;;5068388;28;20032;-63
2021/05/12 08:00:47;;;;;;;8.40;2.63;;;17.10;90.10;;;;;;5069314;28;20193;-63
2021/05/12 08:03:17;;;;;;;7.30;1.98;;;17.10;90.20;;;;;;5066773;28;20127;-65
2021/05/12 08:05:48;;;;;;;7.15;2.17;;;17.00;90.50;;;;;;5063856;28;20442;-71
2021/05/12 08:08:17;;;;;;;6.00;2.28;;;16.90;90.70;;;;;;5069986;28;20473;-69
2021/05/12 08:10:44;;;;;;;7.97;3.78;;;16.80;90.90;;;;;;5066605;28;20517;-69
2021/05/12 08:13:11;;;;;;;9.00;5.18;;;16.80;91.00;;;;;;5069252;28;20034;-62
2021/05/12 08:15:39;;;;;;;4.40;2.25;;;16.80;90.90;;;;;;5067505;28;20136;-71
2021/05/12 08:18:06;;;;;;;8.82;3.90;;;16.80;90.80;;;;;;5070166;28;20111;-65
2021/05/12 08:20:35;;;;;;;7.82;2.08;;;16.80;91.00;;;;;;5070159;28;20367;-62
2021/05/12 08:23:02;;;;;;;10.70;7.78;;;16.80;90.90;;;;;;5067020;28;20041;-63
2021/05/12 08:25:30;;;;;;;7.05;2.60;;;16.90;90.70;;;;;;5067813;28;20396;-63
2021/05/12 08:27:57;;;;;;;7.40;2.88;;;17.00;90.70;;;;;;5065037;28;20495;-69
2021/05/12 08:30:26;;;;;;;7.85;3.42;;;17.00;90.60;;;;;;5068939;28;20020;-64
2021/05/12 08:32:57;;;;;;;8.23;6.00;;;17.00;90.50;;;;;;5068791;28;20036;-69
2021/05/12 08:35:25;;;;;;;8.45;4.80;;;16.90;90.70;;;;;;5066635;28;20036;-66
2021/05/12 08:37:52;;;;;;;6.40;2.60;;;16.80;90.80;;;;;;5067472;28;20476;-64
2021/05/12 08:40:23;;;;;;;4.43;2.30;;;16.80;91.10;;;;;;5066375;28;20020;-71
2021/05/12 08:42:55;;;;;;;5.30;2.20;;;16.80;91.00;;;;;;5068072;28;20027;-66
2021/05/12 08:45:25;;;;;;;6.50;3.47;;;16.80;91.00;;;;;;5067669;28;20553;-63
2021/05/12 08:48:09;;;;;;;8.07;2.26;;;16.70;91.00;;;;;;5021780;28;10000873;-63
2021/05/12 08:50:37;;;;;;;6.47;2.40;;;16.80;91.20;;;;;;5064401;28;20212;-69
2021/05/12 08:53:05;;;;;;;7.78;1.98;;;16.70;91.30;;;;;;5064454;28;20523;-65
2021/05/12 08:55:34;;;;;;;5.57;2.22;;;16.70;91.40;;;;;;5065062;28;20103;-69
2021/05/12 08:58:01;;;;;;;5.63;1.98;;;16.60;91.50;;;;;;5064033;28;20367;-65
2021/05/12 09:00:29;;;;;;;5.45;1.90;;;16.70;91.50;;;;;;5066113;28;20059;-66
2021/05/12 09:02:59;;;;;;;5.30;2.53;;;16.70;91.50;;;;;;5062635;28;20032;-65
2021/05/12 09:05:29;;;;;;;5.93;1.60;;;16.70;91.40;;;;;;5069519;28;20075;-69
2021/05/12 09:07:57;;;;;;;8.13;1.70;;;16.70;91.40;;;;;;5068763;28;20020;-71
2021/05/12 09:10:25;;;;;;;6.45;1.77;;;16.80;91.20;;;;;;5069031;28;20381;-66
2021/05/12 09:13:00;;;;;;;7.35;2.22;;;16.80;91.20;;;;;;5067255;28;20017;-66
2021/05/12 09:15:31;;;;;;;5.93;2.10;;;16.90;91.20;;;;;;5050497;28;20056;-71
2021/05/12 09:18:03;;;;;;;10.00;2.10;;;16.90;91.20;;;;;;5064949;28;20081;-70
2021/05/12 09:20:32;;;;;;;4.28;1.55;;;16.90;91.00;;;;;;5046804;28;20059;-69
2021/05/12 09:23:10;;;;;;;8.95;2.00;;;17.00;91.00;;;;;;5046412;28;20087;-64
2021/05/12 09:25:40;;;;;;;6.35;1.73;;;17.00;90.90;;;;;;5063835;28;20483;-63
2021/05/12 09:28:22;;;;;;;6.10;1.80;;;17.00;90.90;;;;;;5065203;28;20028;-71
2021/05/12 09:31:11;;;;;;;3.65;1.33;;;17.00;91.00;;;;;;5061394;28;20024;-71
2021/05/12 09:33:50;;;;;;;4.63;1.58;;;17.00;90.80;;;;;;5059694;28;20115;-71
2021/05/12 09:36:30;;;;;;;9.23;2.35;;;17.10;90.60;;;;;;5072992;28;20177;-65
2021/05/12 09:38:58;;;;;;;7.63;2.00;;;17.10;90.60;;;;;;5051253;28;20032;-68
2021/05/12 09:41:36;;;;;;;6.32;2.00;;;17.10;90.60;;;;;;5070053;28;20448;-71
2021/05/12 09:44:06;;;;;;;7.35;1.83;;;17.10;90.70;;;;;;5065832;28;20024;-63
2021/05/12 09:46:36;;;;;;;5.53;1.80;;;17.00;91.00;;;;;;5078607;28;20103;-71
2021/05/12 09:49:03;;;;;;;8.88;2.35;;;16.90;90.80;;;;;;5067824;28;20024;-66
2021/05/12 09:51:37;;;;;;;4.15;1.85;;;16.80;91.00;;;;;;5065618;28;20073;-71
2021/05/12 09:54:05;;;;;;;6.85;2.25;;;16.80;91.00;;;;;;5064911;28;21033;-67
2021/05/12 09:56:40;;;;;;;7.50;2.15;;;16.70;91.20;;;;;;5071288;28;20102;-65
2021/05/12 09:59:16;;;;;;;10.00;2.85;;;16.70;91.10;;;;;;5068914;28;20020;-72
2021/05/12 10:01:55;;;;;;;7.45;2.60;;;16.70;91.10;;;;;;5067831;28;20052;-66
2021/05/12 10:04:23;;;;;;;7.30;2.30;;;16.80;91.00;;;;;;5068842;28;20028;-65
2021/05/12 10:06:51;;;;;;;6.13;2.55;;;16.80;91.10;;;;;;5067632;28;20039;-71
2021/05/12 10:09:26;;;;;;;11.10;2.45;;;16.80;91.40;;;;;;5069664;28;20031;-76
2021/05/12 10:12:16;;;;;;;10.07;2.60;;;16.70;91.60;;;;;;5068301;28;20021;-71
2021/05/12 10:14:46;;;;;;;8.18;2.42;;;16.70;91.90;;;;;;5067557;28;20067;-65
2021/05/12 10:17:17;;;;;;;6.55;2.50;;;16.70;91.90;;;;;;5066840;28;20529;-65
2021/05/12 10:19:46;;;;;;;8.95;2.35;;;16.60;92.10;;;;;;5070194;28;20107;-64
2021/05/12 10:22:15;;;;;;;14.75;3.00;;;16.50;92.40;;;;;;5065262;28;20087;-70
2021/05/12 10:24:44;;;;;;;6.65;2.30;;;16.50;92.60;;;;;;5071366;28;20087;-67
2021/05/12 10:27:14;;;;;;;7.38;2.08;;;16.50;92.50;;;;;;5067748;28;20024;-68
2021/05/12 10:29:47;;;;;;;8.05;2.20;;;16.50;92.50;;;;;;5066002;28;20481;-69
2021/05/12 10:32:38;;;;;;;5.97;2.03;;;16.50;92.30;;;;;;5071290;28;20333;-69
2021/05/12 10:35:15;;;;;;;7.60;2.33;;;16.50;92.50;;;;;;5068670;28;20032;-65
2021/05/12 10:37:47;;;;;;;4.13;1.92;;;16.40;92.50;;;;;;5068868;28;20656;-65
2021/05/12 10:40:21;;;;;;;10.00;3.20;;;16.30;93.00;;;;;;5070358;28;20376;-65
2021/05/12 10:49:00;;;;;;;5.13;3.03;;;16.10;92.90;;;;;;5066223;28;20033;-69
2021/05/12 10:51:34;;;;;;;10.48;3.10;;;16.10;92.90;;;;;;5067053;28;20029;-62
2021/05/12 10:54:06;;;;;;;12.32;4.07;;;16.10;93.20;;;;;;5064696;28;20032;-63
2021/05/12 10:56:43;;;;;;;;;;;16.10;92.90;;;;;;5066908;28;20035;-62
2021/05/12 10:59:12;;;;;;;6.45;2.90;;;16.10;92.50;;;;;;5061562;28;19912;-69
2021/05/12 11:01:42;;;;;;;5.47;3.10;;;16.10;92.60;;;;;;5068462;28;20081;-64
2021/05/12 11:04:18;;;;;;;10.77;3.28;;;16.10;92.60;;;;;;5063589;28;20089;-71
2021/05/12 11:06:45;;;;;;;8.13;3.80;;;16.00;92.70;;;;;;5047532;28;20411;-66
2021/05/12 11:09:20;;;;;;;8.80;3.15;;;16.00;92.90;;;;;;5054061;28;20021;-65
2021/05/12 11:11:59;;;;;;;8.70;3.00;;;15.90;92.80;;;;;;5062527;28;20135;-69
2021/05/12 11:14:35;;;;;;;7.25;3.42;;;15.80;93.10;;;;;;4717979;28;9999812;-69
2021/05/12 11:17:18;;;;;;;5.30;2.90;;;15.90;93.00;;;;;;5043960;28;20032;-64
2021/05/12 11:19:49;;;;;;;10.73;3.65;;;15.90;93.40;;;;;;5057730;28;20028;-66
2021/05/12 11:25:29;;;;;;;7.82;2.58;;;16.00;93.10;;;;;;5060464;28;20036;-65
2021/05/12 11:33:26;;;;;;;6.40;3.05;;;16.00;92.70;;;;;;5066377;28;20048;-65
2021/05/12 11:35:59;;;;;;;11.45;7.05;;;16.00;92.80;;;;;;5060125;28;20257;-65
2021/05/12 11:38:26;;;;;;;4.13;2.55;;;16.00;92.70;;;;;;5066854;28;20036;-66
2021/05/12 11:41:13;;;;;;;8.40;3.17;;;16.00;92.70;;;;;;5063111;28;20036;-64
2021/05/12 11:44:02;;;;;;;5.35;2.03;;;16.00;92.60;;;;;;5067917;28;20092;-64
2021/05/12 11:46:37;;;;;;;6.10;2.63;;;16.10;92.20;;;;;;5064252;28;20032;-67
2021/05/12 11:49:13;;;;;;;8.88;3.70;;;16.10;92.00;;;;;;5066124;28;20031;-64
2021/05/12 11:51:45;;;;;;;10.57;3.75;;;16.10;92.10;;;;;;5063347;28;20554;-69
2021/05/12 11:54:27;;;;;;;8.80;4.00;;;16.10;91.90;;;;;;5065737;28;20127;-63
2021/05/12 11:57:00;;;;;;;8.15;4.20;;;16.00;92.30;;;;;;5069072;28;20055;-63
2021/05/12 11:59:31;;;;;;;8.38;3.38;;;15.80;92.40;;;;;;5060763;28;20036;-67
2021/05/12 12:02:10;;;;;;;6.13;3.10;;;15.80;92.20;;;;;;5069009;28;20020;-67
2021/05/12 12:04:59;;;;;;;8.93;3.05;;;15.80;92.10;;;;;;5069365;28;20047;-63
2021/05/12 12:07:27;;;;;;;6.28;3.03;;;15.90;92.00;;;;;;5068768;28;20024;-68
2021/05/12 12:10:06;;;;;;;7.43;2.50;;;15.80;92.00;;;;;;5069240;28;20008;-67
2021/05/12 12:12:35;;;;;;;5.07;2.33;;;15.80;92.20;;;;;;5071196;28;20020;-69
2021/05/12 12:15:08;;;;;;;5.05;2.47;;;15.70;92.60;;;;;;5071689;28;20070;-64
2021/05/12 12:17:35;;;;;;;4.95;2.22;;;15.60;92.50;;;;;;5073563;28;20048;-68
2021/05/12 12:20:05;;;;;;;4.78;2.40;;;15.50;92.60;;;;;;5070969;28;20028;-66
2021/05/12 12:22:33;;;;;;;6.07;2.55;;;15.50;92.80;;;;;;5052889;28;20044;-68
2021/05/12 12:25:20;;;;;;;5.20;3.08;;;15.50;92.60;;;;;;5072700;28;20027;-68
2021/05/12 12:27:47;;;;;;;5.78;2.92;;;15.40;92.90;;;;;;5072375;28;20024;-65
2021/05/12 12:30:17;;;;;;;8.77;4.00;;;15.30;93.00;;;;;;5072373;28;20028;-68
2021/05/12 12:32:45;;;;;;;7.65;3.13;;;15.30;93.20;;;;;;5071429;28;20020;-65
2021/05/12 12:35:12;;;;;;;7.28;2.70;;;15.40;93.10;;;;;;5054852;28;20029;-72
2021/05/12 12:37:43;;;;;;;7.45;2.67;;;15.50;93.30;;;;;;5071417;28;20032;-66
2021/05/12 12:40:13;;;;;;;10.32;3.35;;;15.50;93.70;;;;;;5071783;28;20455;-70
2021/05/12 12:42:51;;;;;;;9.55;3.63;;;15.50;94.00;;;;;;5053627;28;20533;-65
2021/05/12 12:45:23;;;;;;;12.35;3.60;;;15.50;94.30;;;;;;5070901;28;20051;-72
2021/05/12 12:47:55;;;;;;;8.57;3.50;;;15.50;94.40;;;;;;5073074;28;20495;-70
2021/05/12 12:50:24;;;;;;;9.20;3.60;;;15.50;93.90;;;;;;5055896;28;20261;-70
2021/05/12 12:52:52;;;;;;;7.28;3.38;;;15.50;94.30;;;;;;5069963;28;20028;-65
2021/05/12 12:55:28;;;;;;;6.30;3.30;;;15.50;93.80;;;;;;5073499;28;20012;-65
2021/05/12 12:58:02;;;;;;;9.55;2.88;;;15.50;94.00;;;;;;5073361;28;20020;-70
2021/05/12 13:00:47;;;;;;;6.57;3.28;;;15.50;93.30;;;;;;5071891;28;20484;-65
2021/05/12 13:03:16;;;;;;;6.55;2.80;;;15.50;93.10;;;;;;5052491;28;20630;-65
2021/05/12 13:05:52;;;;;;;4.43;2.28;;;15.50;93.70;;;;;;5071688;28;20031;-71
2021/05/12 13:08:22;;;;;;;5.13;2.40;;;15.50;93.30;;;;;;5073297;28;20021;-65
2021/05/12 13:10:51;;;;;;;5.85;2.35;;;15.50;93.00;;;;;;5073710;28;20021;-70
2021/05/12 13:13:41;;;;;;;5.15;2.83;;;15.50;93.10;;;;;;5069682;28;20025;-68